CheckWX is a tool to help pilots better visualize weather data.  It is not intended as a substitute for an official pre-flight weather briefing.

11:13:30 UTC

FALA TAF
Lanseria Airport
Johannesburg, South Africa
TAF FALA 150400Z 1506/1606 VRB03KT CAVOK TX30/1511Z TN17/1604Z BECMG 1508/1510 33008KT SCT040 FEW040TCU PROB40 TEMPO 1511/1516 5000 TSRA FEW045CB BECMG 1517/1519 VRB03KT CAVOK PROB30 TEMPO 1604/1606 BKN010

Oct-15@
06:00 UTC

Oct-15 @ 06:00 UTC

Oct-15@
08:00 UTC

Oct-15 @ 08:00 UTC

TAF FALA 150400Z 1506/1606 VRB03KT CAVOK TX30/1511Z TN17/1604Z

Expired

Wind
  • Variable at 3 KTS
Cloud Levels
  • No significant clouds

Oct-15@
08:00 UTC

Oct-15 @ 08:00 UTC

Oct-15@
17:00 UTC

Oct-15 @ 17:00 UTC

BECMG 1508/1510 33008KT SCT040 FEW040TCU

Becoming

Becoming Conditions expected by Tue, Oct 15, 2019 @ 10:00 UTC

Wind
  • 330° at 8 KTS
Cloud Levels
  • Scattered at 4,000' AGL
  • Few at 4,000' AGL

Oct-15@
11:00 UTC

Oct-15 @ 11:00 UTC

Oct-15@
16:00 UTC

Oct-15 @ 16:00 UTC

PROB40 TEMPO 1511/1516 5000 TSRA FEW045CB

Temporary - 40% Likelihood

Temporary - 40% Likelihood during this time.

Conditions
Thunderstorm, Rain
Cloud Levels
  • Few at 4,500' AGL

Oct-15@
17:00 UTC

Oct-15 @ 17:00 UTC

Oct-16@
06:00 UTC

Oct-16 @ 06:00 UTC

BECMG 1517/1519 VRB03KT CAVOK

Becoming

Becoming Conditions expected by Tue, Oct 15, 2019 @ 19:00 UTC

Wind
  • Variable at 3 KTS
Conditions
No significant weather
Cloud Levels
  • No significant clouds

Oct-16@
04:00 UTC

Oct-16 @ 04:00 UTC

Oct-16@
06:00 UTC

Oct-16 @ 06:00 UTC

PROB30 TEMPO 1604/1606 BKN010

Temporary - 30% Likelihood

Temporary - 30% Likelihood during this time.

Cloud Levels
  • Broken at 1,000' AGL